sensor_id;sensor_type;location;lat;lon;timestamp;P1;durP1;ratioP1;P2;durP2;ratioP2
75320;SDS011;68337;52.196;5.660;2023-04-24T00:00:10;3.30;;;3.00;;
75320;SDS011;68337;52.196;5.660;2023-04-24T00:02:39;1.90;;;1.80;;
75320;SDS011;68337;52.196;5.660;2023-04-24T00:05:06;1.83;;;1.73;;
75320;SDS011;68337;52.196;5.660;2023-04-24T00:07:33;2.83;;;1.33;;
75320;SDS011;68337;52.196;5.660;2023-04-24T00:09:59;12.02;;;2.38;;
75320;SDS011;68337;52.196;5.660;2023-04-24T00:12:25;1.88;;;1.60;;
75320;SDS011;68337;52.196;5.660;2023-04-24T00:14:52;1.77;;;1.67;;
75320;SDS011;68337;52.196;5.660;2023-04-24T00:17:18;2.35;;;2.00;;
75320;SDS011;68337;52.196;5.660;2023-04-24T00:19:48;2.50;;;2.08;;
75320;SDS011;68337;52.196;5.660;2023-04-24T00:22:16;2.08;;;1.98;;
75320;SDS011;68337;52.196;5.660;2023-04-24T00:24:42;2.17;;;2.08;;
75320;SDS011;68337;52.196;5.660;2023-04-24T00:27:08;2.63;;;2.42;;
75320;SDS011;68337;52.196;5.660;2023-04-24T00:29:34;3.13;;;2.92;;
75320;SDS011;68337;52.196;5.660;2023-04-24T00:31:59;3.95;;;3.65;;
75320;SDS011;68337;52.196;5.660;2023-04-24T00:34:25;4.30;;;4.00;;
75320;SDS011;68337;52.196;5.660;2023-04-24T00:36:51;5.45;;;4.95;;
75320;SDS011;68337;52.196;5.660;2023-04-24T00:39:20;4.85;;;4.35;;
75320;SDS011;68337;52.196;5.660;2023-04-24T00:41:46;5.03;;;4.63;;
75320;SDS011;68337;52.196;5.660;2023-04-24T00:44:13;4.38;;;4.07;;
75320;SDS011;68337;52.196;5.660;2023-04-24T00:46:39;4.63;;;4.20;;
75320;SDS011;68337;52.196;5.660;2023-04-24T00:49:06;5.28;;;4.15;;
75320;SDS011;68337;52.196;5.660;2023-04-24T00:51:32;4.95;;;4.55;;
75320;SDS011;68337;52.196;5.660;2023-04-24T00:53:58;4.78;;;4.40;;
75320;SDS011;68337;52.196;5.660;2023-04-24T00:56:24;5.25;;;4.95;;
75320;SDS011;68337;52.196;5.660;2023-04-24T00:58:50;5.93;;;5.43;;
75320;SDS011;68337;52.196;5.660;2023-04-24T01:01:16;6.18;;;5.68;;
75320;SDS011;68337;52.196;5.660;2023-04-24T01:03:45;5.55;;;5.15;;
75320;SDS011;68337;52.196;5.660;2023-04-24T01:06:12;6.53;;;5.93;;
75320;SDS011;68337;52.196;5.660;2023-04-24T01:08:39;5.60;;;5.10;;
75320;SDS011;68337;52.196;5.660;2023-04-24T01:11:05;6.25;;;5.32;;
75320;SDS011;68337;52.196;5.660;2023-04-24T01:13:32;5.78;;;5.18;;
75320;SDS011;68337;52.196;5.660;2023-04-24T01:15:58;5.55;;;5.15;;
75320;SDS011;68337;52.196;5.660;2023-04-24T01:18:25;7.05;;;5.35;;
75320;SDS011;68337;52.196;5.660;2023-04-24T01:20:53;5.65;;;5.07;;
75320;SDS011;68337;52.196;5.660;2023-04-24T01:23:21;5.90;;;5.05;;
75320;SDS011;68337;52.196;5.660;2023-04-24T01:25:48;5.80;;;5.32;;
75320;SDS011;68337;52.196;5.660;2023-04-24T01:28:14;5.72;;;5.32;;
75320;SDS011;68337;52.196;5.660;2023-04-24T01:30:41;5.90;;;5.43;;
75320;SDS011;68337;52.196;5.660;2023-04-24T01:33:06;6.13;;;5.63;;
75320;SDS011;68337;52.196;5.660;2023-04-24T01:35:33;6.50;;;5.47;;
75320;SDS011;68337;52.196;5.660;2023-04-24T01:37:59;8.20;;;6.07;;
75320;SDS011;68337;52.196;5.660;2023-04-24T01:40:25;6.40;;;5.88;;
75320;SDS011;68337;52.196;5.660;2023-04-24T01:42:50;7.10;;;6.13;;
75320;SDS011;68337;52.196;5.660;2023-04-24T01:45:17;10.48;;;6.78;;
75320;SDS011;68337;52.196;5.660;2023-04-24T01:47:42;6.78;;;6.07;;
75320;SDS011;68337;52.196;5.660;2023-04-24T01:50:09;7.05;;;6.10;;
75320;SDS011;68337;52.196;5.660;2023-04-24T01:52:35;7.78;;;6.70;;
75320;SDS011;68337;52.196;5.660;2023-04-24T01:55:02;9.18;;;7.88;;
75320;SDS011;68337;52.196;5.660;2023-04-24T01:57:29;8.30;;;7.57;;
75320;SDS011;68337;52.196;5.660;2023-04-24T01:59:56;9.02;;;8.07;;
75320;SDS011;68337;52.196;5.660;2023-04-24T02:02:22;8.65;;;7.80;;
75320;SDS011;68337;52.196;5.660;2023-04-24T02:04:49;12.07;;;7.85;;
75320;SDS011;68337;52.196;5.660;2023-04-24T02:07:15;10.85;;;8.23;;
75320;SDS011;68337;52.196;5.660;2023-04-24T02:09:41;9.77;;;7.70;;
75320;SDS011;68337;52.196;5.660;2023-04-24T02:12:07;8.55;;;7.70;;
75320;SDS011;68337;52.196;5.660;2023-04-24T02:14:32;9.70;;;8.52;;
75320;SDS011;68337;52.196;5.660;2023-04-24T02:16:58;9.00;;;8.02;;
75320;SDS011;68337;52.196;5.660;2023-04-24T02:19:25;9.63;;;8.73;;
75320;SDS011;68337;52.196;5.660;2023-04-24T02:21:51;10.02;;;9.07;;
75320;SDS011;68337;52.196;5.660;2023-04-24T02:24:17;10.50;;;8.80;;
75320;SDS011;68337;52.196;5.660;2023-04-24T02:26:42;10.65;;;9.65;;
75320;SDS011;68337;52.196;5.660;2023-04-24T02:29:08;10.50;;;9.50;;
75320;SDS011;68337;52.196;5.660;2023-04-24T02:31:34;10.82;;;9.82;;
75320;SDS011;68337;52.196;5.660;2023-04-24T02:33:59;10.82;;;9.75;;
75320;SDS011;68337;52.196;5.660;2023-04-24T02:36:25;10.57;;;9.57;;
75320;SDS011;68337;52.196;5.660;2023-04-24T02:38:51;11.60;;;9.48;;
75320;SDS011;68337;52.196;5.660;2023-04-24T02:41:17;9.18;;;7.85;;
75320;SDS011;68337;52.196;5.660;2023-04-24T02:43:42;9.05;;;8.18;;
75320;SDS011;68337;52.196;5.660;2023-04-24T02:46:08;8.27;;;7.47;;
75320;SDS011;68337;52.196;5.660;2023-04-24T02:48:34;8.43;;;7.72;;
75320;SDS011;68337;52.196;5.660;2023-04-24T02:50:59;7.30;;;6.65;;
75320;SDS011;68337;52.196;5.660;2023-04-24T02:53:25;7.80;;;7.03;;
75320;SDS011;68337;52.196;5.660;2023-04-24T02:55:51;9.38;;;7.43;;
75320;SDS011;68337;52.196;5.660;2023-04-24T02:58:17;8.70;;;7.15;;
75320;SDS011;68337;52.196;5.660;2023-04-24T03:00:44;8.07;;;6.93;;
75320;SDS011;68337;52.196;5.660;2023-04-24T03:03:11;7.57;;;6.90;;
75320;SDS011;68337;52.196;5.660;2023-04-24T03:05:36;7.60;;;6.88;;
75320;SDS011;68337;52.196;5.660;2023-04-24T03:08:02;7.78;;;7.05;;
75320;SDS011;68337;52.196;5.660;2023-04-24T03:10:28;8.38;;;7.57;;
75320;SDS011;68337;52.196;5.660;2023-04-24T03:12:54;7.78;;;6.85;;
75320;SDS011;68337;52.196;5.660;2023-04-24T03:15:20;8.25;;;7.47;;
75320;SDS011;68337;52.196;5.660;2023-04-24T03:17:45;7.95;;;7.25;;
75320;SDS011;68337;52.196;5.660;2023-04-24T03:20:12;8.00;;;7.22;;
75320;SDS011;68337;52.196;5.660;2023-04-24T03:22:38;9.30;;;8.40;;
75320;SDS011;68337;52.196;5.660;2023-04-24T03:25:03;8.90;;;8.00;;
75320;SDS011;68337;52.196;5.660;2023-04-24T03:27:30;8.52;;;7.78;;
75320;SDS011;68337;52.196;5.660;2023-04-24T03:29:55;9.35;;;8.48;;
75320;SDS011;68337;52.196;5.660;2023-04-24T03:32:21;9.20;;;7.72;;
75320;SDS011;68337;52.196;5.660;2023-04-24T03:34:50;9.88;;;8.25;;
75320;SDS011;68337;52.196;5.660;2023-04-24T03:37:16;10.43;;;9.18;;
75320;SDS011;68337;52.196;5.660;2023-04-24T03:39:42;9.77;;;8.52;;
75320;SDS011;68337;52.196;5.660;2023-04-24T03:42:08;10.07;;;8.82;;
75320;SDS011;68337;52.196;5.660;2023-04-24T03:44:35;10.43;;;9.05;;
75320;SDS011;68337;52.196;5.660;2023-04-24T03:47:01;10.27;;;9.27;;
75320;SDS011;68337;52.196;5.660;2023-04-24T03:49:26;9.30;;;8.45;;
75320;SDS011;68337;52.196;5.660;2023-04-24T03:51:52;8.70;;;7.68;;
75320;SDS011;68337;52.196;5.660;2023-04-24T03:54:18;9.05;;;8.13;;
75320;SDS011;68337;52.196;5.660;2023-04-24T03:56:45;9.48;;;7.15;;
75320;SDS011;68337;52.196;5.660;2023-04-24T03:59:10;8.18;;;7.28;;
75320;SDS011;68337;52.196;5.660;2023-04-24T04:01:36;8.55;;;7.03;;
75320;SDS011;68337;52.196;5.660;2023-04-24T04:04:03;6.25;;;5.75;;
75320;SDS011;68337;52.196;5.660;2023-04-24T04:06:29;6.72;;;5.70;;
75320;SDS011;68337;52.196;5.660;2023-04-24T04:08:56;6.60;;;6.00;;
75320;SDS011;68337;52.196;5.660;2023-04-24T04:11:22;6.30;;;5.70;;
75320;SDS011;68337;52.196;5.660;2023-04-24T04:13:48;6.55;;;5.47;;
75320;SDS011;68337;52.196;5.660;2023-04-24T04:16:14;5.63;;;5.22;;
75320;SDS011;68337;52.196;5.660;2023-04-24T04:18:41;6.28;;;5.78;;
75320;SDS011;68337;52.196;5.660;2023-04-24T04:21:07;6.68;;;6.07;;
75320;SDS011;68337;52.196;5.660;2023-04-24T04:23:33;6.82;;;5.53;;
75320;SDS011;68337;52.196;5.660;2023-04-24T04:25:59;5.63;;;5.13;;
75320;SDS011;68337;52.196;5.660;2023-04-24T04:28:25;5.38;;;4.88;;
75320;SDS011;68337;52.196;5.660;2023-04-24T04:30:51;6.38;;;5.88;;
75320;SDS011;68337;52.196;5.660;2023-04-24T04:33:20;6.00;;;5.50;;
75320;SDS011;68337;52.196;5.660;2023-04-24T04:35:46;6.03;;;5.53;;
75320;SDS011;68337;52.196;5.660;2023-04-24T04:38:14;6.88;;;6.28;;
75320;SDS011;68337;52.196;5.660;2023-04-24T04:40:40;6.88;;;6.28;;
75320;SDS011;68337;52.196;5.660;2023-04-24T04:43:06;8.18;;;6.70;;
75320;SDS011;68337;52.196;5.660;2023-04-24T04:45:32;7.72;;;7.03;;
75320;SDS011;68337;52.196;5.660;2023-04-24T04:47:59;8.00;;;7.20;;
75320;SDS011;68337;52.196;5.660;2023-04-24T04:50:27;9.02;;;7.55;;
75320;SDS011;68337;52.196;5.660;2023-04-24T04:52:52;9.32;;;8.40;;
75320;SDS011;68337;52.196;5.660;2023-04-24T04:55:18;9.00;;;8.10;;
75320;SDS011;68337;52.196;5.660;2023-04-24T04:57:47;13.45;;;8.18;;
75320;SDS011;68337;52.196;5.660;2023-04-24T05:00:13;8.77;;;7.43;;
75320;SDS011;68337;52.196;5.660;2023-04-24T05:02:39;7.88;;;7.07;;
75320;SDS011;68337;52.196;5.660;2023-04-24T05:05:05;9.30;;;7.80;;
75320;SDS011;68337;52.196;5.660;2023-04-24T05:07:31;10.80;;;7.82;;
75320;SDS011;68337;52.196;5.660;2023-04-24T05:09:57;8.77;;;7.85;;
75320;SDS011;68337;52.196;5.660;2023-04-24T05:12:23;8.27;;;7.10;;
75320;SDS011;68337;52.196;5.660;2023-04-24T05:14:48;8.40;;;7.55;;
75320;SDS011;68337;52.196;5.660;2023-04-24T05:17:14;9.90;;;7.80;;
75320;SDS011;68337;52.196;5.660;2023-04-24T05:19:41;11.35;;;9.15;;
75320;SDS011;68337;52.196;5.660;2023-04-24T05:22:07;12.40;;;9.15;;
75320;SDS011;68337;52.196;5.660;2023-04-24T05:24:34;9.77;;;7.70;;
75320;SDS011;68337;52.196;5.660;2023-04-24T05:27:00;7.68;;;6.82;;
75320;SDS011;68337;52.196;5.660;2023-04-24T05:29:30;6.97;;;6.28;;
75320;SDS011;68337;52.196;5.660;2023-04-24T05:31:56;7.18;;;6.47;;
75320;SDS011;68337;52.196;5.660;2023-04-24T05:34:23;7.10;;;6.45;;
75320;SDS011;68337;52.196;5.660;2023-04-24T05:36:48;7.50;;;6.80;;
75320;SDS011;68337;52.196;5.660;2023-04-24T05:39:15;7.05;;;5.93;;
75320;SDS011;68337;52.196;5.660;2023-04-24T05:41:42;7.32;;;6.63;;
75320;SDS011;68337;52.196;5.660;2023-04-24T05:44:07;7.32;;;6.57;;
75320;SDS011;68337;52.196;5.660;2023-04-24T05:46:33;7.63;;;6.57;;
75320;SDS011;68337;52.196;5.660;2023-04-24T05:48:59;6.85;;;6.25;;
75320;SDS011;68337;52.196;5.660;2023-04-24T05:51:24;7.32;;;6.57;;
75320;SDS011;68337;52.196;5.660;2023-04-24T05:53:51;12.02;;;6.13;;
75320;SDS011;68337;52.196;5.660;2023-04-24T05:56:16;7.38;;;6.20;;
75320;SDS011;68337;52.196;5.660;2023-04-24T05:58:42;6.18;;;5.60;;
75320;SDS011;68337;52.196;5.660;2023-04-24T06:01:08;7.78;;;6.97;;
75320;SDS011;68337;52.196;5.660;2023-04-24T06:03:34;9.35;;;6.75;;
75320;SDS011;68337;52.196;5.660;2023-04-24T06:06:00;6.25;;;5.65;;
75320;SDS011;68337;52.196;5.660;2023-04-24T06:08:26;7.97;;;6.10;;
75320;SDS011;68337;52.196;5.660;2023-04-24T06:10:51;6.97;;;6.22;;
75320;SDS011;68337;52.196;5.660;2023-04-24T06:13:17;9.60;;;6.22;;
75320;SDS011;68337;52.196;5.660;2023-04-24T06:15:43;8.85;;;6.13;;
75320;SDS011;68337;52.196;5.660;2023-04-24T06:18:09;8.00;;;6.00;;
75320;SDS011;68337;52.196;5.660;2023-04-24T06:20:37;6.75;;;6.03;;
75320;SDS011;68337;52.196;5.660;2023-04-24T06:23:03;7.07;;;5.85;;
75320;SDS011;68337;52.196;5.660;2023-04-24T06:25:29;7.50;;;6.07;;
75320;SDS011;68337;52.196;5.660;2023-04-24T06:27:55;6.75;;;6.15;;
75320;SDS011;68337;52.196;5.660;2023-04-24T06:30:21;7.18;;;5.70;;
75320;SDS011;68337;52.196;5.660;2023-04-24T06:32:47;8.60;;;5.90;;
75320;SDS011;68337;52.196;5.660;2023-04-24T06:35:13;7.85;;;6.07;;
75320;SDS011;68337;52.196;5.660;2023-04-24T06:37:42;7.60;;;5.65;;
75320;SDS011;68337;52.196;5.660;2023-04-24T06:40:08;5.93;;;5.32;;
75320;SDS011;68337;52.196;5.660;2023-04-24T06:42:36;5.18;;;4.70;;
75320;SDS011;68337;52.196;5.660;2023-04-24T06:45:02;5.68;;;5.18;;
75320;SDS011;68337;52.196;5.660;2023-04-24T06:47:28;5.93;;;4.80;;
75320;SDS011;68337;52.196;5.660;2023-04-24T06:49:55;4.25;;;3.33;;
75320;SDS011;68337;52.196;5.660;2023-04-24T06:52:20;4.05;;;3.40;;
75320;SDS011;68337;52.196;5.660;2023-04-24T06:54:46;3.42;;;2.90;;
75320;SDS011;68337;52.196;5.660;2023-04-24T06:57:12;3.15;;;2.80;;
75320;SDS011;68337;52.196;5.660;2023-04-24T06:59:37;2.50;;;2.30;;
75320;SDS011;68337;52.196;5.660;2023-04-24T07:02:03;3.10;;;2.50;;
75320;SDS011;68337;52.196;5.660;2023-04-24T07:04:29;2.78;;;2.20;;
75320;SDS011;68337;52.196;5.660;2023-04-24T07:06:55;3.58;;;3.28;;
75320;SDS011;68337;52.196;5.660;2023-04-24T07:09:23;7.40;;;5.75;;
75320;SDS011;68337;52.196;5.660;2023-04-24T07:11:50;12.90;;;8.10;;
75320;SDS011;68337;52.196;5.660;2023-04-24T07:14:17;13.48;;;9.50;;
75320;SDS011;68337;52.196;5.660;2023-04-24T07:16:43;13.05;;;9.63;;
75320;SDS011;68337;52.196;5.660;2023-04-24T07:19:10;15.15;;;11.13;;
75320;SDS011;68337;52.196;5.660;2023-04-24T07:21:36;18.58;;;11.23;;
75320;SDS011;68337;52.196;5.660;2023-04-24T07:24:01;17.42;;;11.60;;
75320;SDS011;68337;52.196;5.660;2023-04-24T07:26:28;19.00;;;11.85;;
75320;SDS011;68337;52.196;5.660;2023-04-24T07:28:55;20.75;;;12.07;;
75320;SDS011;68337;52.196;5.660;2023-04-24T07:31:21;20.55;;;12.70;;
75320;SDS011;68337;52.196;5.660;2023-04-24T07:33:47;20.73;;;13.25;;
75320;SDS011;68337;52.196;5.660;2023-04-24T07:36:13;19.83;;;13.90;;
75320;SDS011;68337;52.196;5.660;2023-04-24T07:38:43;23.38;;;13.85;;
75320;SDS011;68337;52.196;5.660;2023-04-24T07:41:10;16.23;;;12.55;;
75320;SDS011;68337;52.196;5.660;2023-04-24T07:43:36;20.35;;;12.95;;
75320;SDS011;68337;52.196;5.660;2023-04-24T07:46:01;22.00;;;13.43;;
75320;SDS011;68337;52.196;5.660;2023-04-24T07:48:57;17.70;;;12.35;;
75320;SDS011;68337;52.196;5.660;2023-04-24T07:51:30;22.38;;;12.43;;
75320;SDS011;68337;52.196;5.660;2023-04-24T07:54:08;17.63;;;12.80;;
75320;SDS011;68337;52.196;5.660;2023-04-24T07:57:04;19.70;;;11.82;;
75320;SDS011;68337;52.196;5.660;2023-04-24T07:59:31;21.27;;;12.35;;
75320;SDS011;68337;52.196;5.660;2023-04-24T08:01:57;15.63;;;12.02;;
75320;SDS011;68337;52.196;5.660;2023-04-24T08:04:23;16.55;;;10.95;;
75320;SDS011;68337;52.196;5.660;2023-04-24T08:06:49;18.20;;;12.10;;
75320;SDS011;68337;52.196;5.660;2023-04-24T08:09:14;24.33;;;13.10;;
75320;SDS011;68337;52.196;5.660;2023-04-24T08:11:40;19.65;;;12.13;;
75320;SDS011;68337;52.196;5.660;2023-04-24T08:14:15;25.88;;;14.20;;
75320;SDS011;68337;52.196;5.660;2023-04-24T08:16:46;20.25;;;12.48;;
75320;SDS011;68337;52.196;5.660;2023-04-24T08:19:17;21.20;;;12.13;;
75320;SDS011;68337;52.196;5.660;2023-04-24T08:21:55;21.20;;;12.13;;
75320;SDS011;68337;52.196;5.660;2023-04-24T08:24:36;24.55;;;11.02;;
75320;SDS011;68337;52.196;5.660;2023-04-24T08:27:24;16.17;;;11.00;;
75320;SDS011;68337;52.196;5.660;2023-04-24T08:29:56;16.15;;;11.55;;
75320;SDS011;68337;52.196;5.660;2023-04-24T08:32:28;20.00;;;11.18;;
75320;SDS011;68337;52.196;5.660;2023-04-24T08:35:11;19.48;;;12.35;;
75320;SDS011;68337;52.196;5.660;2023-04-24T08:37:44;25.00;;;12.55;;
75320;SDS011;68337;52.196;5.660;2023-04-24T08:40:31;20.55;;;11.55;;
75320;SDS011;68337;52.196;5.660;2023-04-24T08:43:13;18.10;;;10.05;;
75320;SDS011;68337;52.196;5.660;2023-04-24T08:45:49;12.57;;;8.15;;
75320;SDS011;68337;52.196;5.660;2023-04-24T08:48:21;17.48;;;7.63;;
75320;SDS011;68337;52.196;5.660;2023-04-24T08:50:50;14.82;;;6.57;;
75320;SDS011;68337;52.196;5.660;2023-04-24T08:53:19;13.65;;;5.03;;
75320;SDS011;68337;52.196;5.660;2023-04-24T08:55:49;17.55;;;6.20;;
75320;SDS011;68337;52.196;5.660;2023-04-24T08:58:19;11.88;;;5.35;;
75320;SDS011;68337;52.196;5.660;2023-04-24T09:00:55;13.68;;;5.72;;
75320;SDS011;68337;52.196;5.660;2023-04-24T09:03:21;17.55;;;5.68;;
75320;SDS011;68337;52.196;5.660;2023-04-24T09:05:51;18.15;;;5.32;;
75320;SDS011;68337;52.196;5.660;2023-04-24T09:08:19;15.73;;;4.97;;
75320;SDS011;68337;52.196;5.660;2023-04-24T09:10:48;16.80;;;5.28;;
75320;SDS011;68337;52.196;5.660;2023-04-24T09:13:14;27.17;;;4.57;;
75320;SDS011;68337;52.196;5.660;2023-04-24T09:15:44;17.63;;;4.93;;
75320;SDS011;68337;52.196;5.660;2023-04-24T09:18:09;17.33;;;5.20;;
75320;SDS011;68337;52.196;5.660;2023-04-24T09:20:35;22.40;;;5.68;;
75320;SDS011;68337;52.196;5.660;2023-04-24T09:23:26;17.50;;;4.50;;
75320;SDS011;68337;52.196;5.660;2023-04-24T09:25:56;19.08;;;5.32;;
75320;SDS011;68337;52.196;5.660;2023-04-24T09:28:40;19.52;;;5.80;;
75320;SDS011;68337;52.196;5.660;2023-04-24T09:34:04;19.35;;;5.72;;
75320;SDS011;68337;52.196;5.660;2023-04-24T09:36:36;15.13;;;5.30;;
75320;SDS011;68337;52.196;5.660;2023-04-24T09:39:03;17.85;;;5.28;;
75320;SDS011;68337;52.196;5.660;2023-04-24T09:41:31;16.50;;;4.90;;
75320;SDS011;68337;52.196;5.660;2023-04-24T09:44:01;15.55;;;5.10;;
75320;SDS011;68337;52.196;5.660;2023-04-24T09:46:37;11.82;;;4.78;;
75320;SDS011;68337;52.196;5.660;2023-04-24T09:49:13;18.60;;;5.55;;
75320;SDS011;68337;52.196;5.660;2023-04-24T09:51:43;13.30;;;3.88;;
75320;SDS011;68337;52.196;5.660;2023-04-24T09:54:15;12.65;;;4.07;;
75320;SDS011;68337;52.196;5.660;2023-04-24T09:56:50;7.65;;;3.45;;
75320;SDS011;68337;52.196;5.660;2023-04-24T09:59:17;9.48;;;3.80;;
75320;SDS011;68337;52.196;5.660;2023-04-24T10:01:43;6.63;;;2.65;;
75320;SDS011;68337;52.196;5.660;2023-04-24T10:04:19;9.75;;;3.03;;
75320;SDS011;68337;52.196;5.660;2023-04-24T10:06:47;6.93;;;3.13;;
75320;SDS011;68337;52.196;5.660;2023-04-24T10:09:14;9.75;;;2.70;;
75320;SDS011;68337;52.196;5.660;2023-04-24T10:11:45;10.48;;;3.63;;
75320;SDS011;68337;52.196;5.660;2023-04-24T10:14:13;10.13;;;3.25;;
75320;SDS011;68337;52.196;5.660;2023-04-24T10:16:40;9.88;;;3.60;;
75320;SDS011;68337;52.196;5.660;2023-04-24T10:19:07;12.70;;;3.35;;
75320;SDS011;68337;52.196;5.660;2023-04-24T10:21:34;8.88;;;3.70;;
75320;SDS011;68337;52.196;5.660;2023-04-24T10:24:02;13.65;;;3.20;;
75320;SDS011;68337;52.196;5.660;2023-04-24T10:26:29;11.05;;;4.10;;
75320;SDS011;68337;52.196;5.660;2023-04-24T10:28:57;7.75;;;3.92;;
75320;SDS011;68337;52.196;5.660;2023-04-24T10:31:23;8.65;;;3.55;;
75320;SDS011;68337;52.196;5.660;2023-04-24T10:33:50;6.80;;;4.10;;
75320;SDS011;68337;52.196;5.660;2023-04-24T10:36:18;8.85;;;3.10;;
75320;SDS011;68337;52.196;5.660;2023-04-24T10:38:48;9.27;;;3.20;;
75320;SDS011;68337;52.196;5.660;2023-04-24T10:41:16;14.32;;;3.72;;
75320;SDS011;68337;52.196;5.660;2023-04-24T10:43:48;12.43;;;4.35;;
75320;SDS011;68337;52.196;5.660;2023-04-24T10:46:29;16.17;;;4.00;;
75320;SDS011;68337;52.196;5.660;2023-04-24T10:48:55;10.35;;;3.10;;
75320;SDS011;68337;52.196;5.660;2023-04-24T10:51:22;9.68;;;3.00;;
75320;SDS011;68337;52.196;5.660;2023-04-24T10:53:49;8.07;;;2.63;;
75320;SDS011;68337;52.196;5.660;2023-04-24T10:56:16;9.07;;;2.42;;
75320;SDS011;68337;52.196;5.660;2023-04-24T10:58:49;9.50;;;2.13;;
75320;SDS011;68337;52.196;5.660;2023-04-24T11:01:30;3.20;;;2.13;;
75320;SDS011;68337;52.196;5.660;2023-04-24T11:04:00;4.80;;;1.80;;
75320;SDS011;68337;52.196;5.660;2023-04-24T11:06:28;5.35;;;2.25;;
75320;SDS011;68337;52.196;5.660;2023-04-24T11:09:01;6.85;;;2.05;;
75320;SDS011;68337;52.196;5.660;2023-04-24T11:11:32;4.97;;;1.80;;
75320;SDS011;68337;52.196;5.660;2023-04-24T11:21:41;5.43;;;1.95;;
75320;SDS011;68337;52.196;5.660;2023-04-24T11:26:55;5.93;;;1.95;;
75320;SDS011;68337;52.196;5.660;2023-04-24T11:29:22;5.45;;;1.50;;
75320;SDS011;68337;52.196;5.660;2023-04-24T11:32:14;1.52;;;1.05;;
75320;SDS011;68337;52.196;5.660;2023-04-24T11:34:54;3.38;;;1.33;;
75320;SDS011;68337;52.196;5.660;2023-04-24T11:37:22;4.40;;;1.55;;
75320;SDS011;68337;52.196;5.660;2023-04-24T11:39:52;4.50;;;1.48;;
75320;SDS011;68337;52.196;5.660;2023-04-24T11:42:22;4.07;;;1.50;;
75320;SDS011;68337;52.196;5.660;2023-04-24T11:44:49;4.30;;;1.50;;
75320;SDS011;68337;52.196;5.660;2023-04-24T11:47:16;5.40;;;2.10;;
75320;SDS011;68337;52.196;5.660;2023-04-24T11:49:42;3.70;;;1.40;;
75320;SDS011;68337;52.196;5.660;2023-04-24T11:52:08;1.58;;;1.40;;
75320;SDS011;68337;52.196;5.660;2023-04-24T11:54:34;3.83;;;1.15;;
75320;SDS011;68337;52.196;5.660;2023-04-24T11:56:59;4.97;;;1.20;;
75320;SDS011;68337;52.196;5.660;2023-04-24T11:59:34;2.00;;;1.00;;
75320;SDS011;68337;52.196;5.660;2023-04-24T12:02:01;5.32;;;0.88;;
75320;SDS011;68337;52.196;5.660;2023-04-24T12:04:37;2.50;;;1.08;;
75320;SDS011;68337;52.196;5.660;2023-04-24T12:07:06;4.00;;;1.13;;
75320;SDS011;68337;52.196;5.660;2023-04-24T12:09:40;2.85;;;1.40;;
75320;SDS011;68337;52.196;5.660;2023-04-24T12:12:10;1.40;;;0.80;;
75320;SDS011;68337;52.196;5.660;2023-04-24T12:14:44;3.28;;;0.90;;
75320;SDS011;68337;52.196;5.660;2023-04-24T12:17:14;1.67;;;0.95;;
75320;SDS011;68337;52.196;5.660;2023-04-24T12:19:44;3.00;;;0.90;;
75320;SDS011;68337;52.196;5.660;2023-04-24T12:22:11;5.45;;;0.70;;
75320;SDS011;68337;52.196;5.660;2023-04-24T12:24:54;3.45;;;1.10;;
75320;SDS011;68337;52.196;5.660;2023-04-24T12:27:21;6.10;;;1.45;;
75320;SDS011;68337;52.196;5.660;2023-04-24T12:29:57;0.80;;;0.70;;
75320;SDS011;68337;52.196;5.660;2023-04-24T12:32:24;5.25;;;1.33;;
75320;SDS011;68337;52.196;5.660;2023-04-24T12:34:53;3.17;;;1.38;;
75320;SDS011;68337;52.196;5.660;2023-04-24T12:37:20;4.60;;;1.33;;
75320;SDS011;68337;52.196;5.660;2023-04-24T12:39:58;6.30;;;1.20;;
75320;SDS011;68337;52.196;5.660;2023-04-24T12:42:25;7.03;;;1.52;;
75320;SDS011;68337;52.196;5.660;2023-04-24T12:44:55;4.53;;;0.98;;
75320;SDS011;68337;52.196;5.660;2023-04-24T12:47:23;5.03;;;1.00;;
75320;SDS011;68337;52.196;5.660;2023-04-24T12:49:49;4.78;;;1.40;;
75320;SDS011;68337;52.196;5.660;2023-04-24T12:52:17;3.35;;;1.38;;
75320;SDS011;68337;52.196;5.660;2023-04-24T12:54:45;5.80;;;1.30;;
75320;SDS011;68337;52.196;5.660;2023-04-24T12:57:11;2.55;;;1.27;;
75320;SDS011;68337;52.196;5.660;2023-04-24T12:59:36;4.88;;;1.20;;
75320;SDS011;68337;52.196;5.660;2023-04-24T13:02:04;7.55;;;0.93;;
75320;SDS011;68337;52.196;5.660;2023-04-24T13:04:30;4.85;;;1.35;;
75320;SDS011;68337;52.196;5.660;2023-04-24T13:06:55;6.47;;;1.60;;
75320;SDS011;68337;52.196;5.660;2023-04-24T13:09:21;9.77;;;1.67;;
75320;SDS011;68337;52.196;5.660;2023-04-24T13:11:47;6.97;;;2.00;;
75320;SDS011;68337;52.196;5.660;2023-04-24T13:14:12;6.28;;;1.83;;
75320;SDS011;68337;52.196;5.660;2023-04-24T13:16:38;11.02;;;2.58;;
75320;SDS011;68337;52.196;5.660;2023-04-24T13:19:04;7.57;;;2.38;;
75320;SDS011;68337;52.196;5.660;2023-04-24T13:21:29;13.20;;;2.90;;
75320;SDS011;68337;52.196;5.660;2023-04-24T13:23:55;7.25;;;2.03;;
75320;SDS011;68337;52.196;5.660;2023-04-24T13:26:21;11.75;;;2.60;;
75320;SDS011;68337;52.196;5.660;2023-04-24T13:28:47;5.90;;;2.40;;
75320;SDS011;68337;52.196;5.660;2023-04-24T13:31:12;13.02;;;3.10;;
75320;SDS011;68337;52.196;5.660;2023-04-24T13:33:38;12.48;;;3.08;;
75320;SDS011;68337;52.196;5.660;2023-04-24T13:36:05;18.48;;;3.95;;
75320;SDS011;68337;52.196;5.660;2023-04-24T13:38:31;15.23;;;3.60;;
75320;SDS011;68337;52.196;5.660;2023-04-24T13:40:57;11.43;;;3.42;;
75320;SDS011;68337;52.196;5.660;2023-04-24T13:43:22;14.13;;;3.47;;
75320;SDS011;68337;52.196;5.660;2023-04-24T13:45:48;13.65;;;3.47;;
75320;SDS011;68337;52.196;5.660;2023-04-24T13:48:14;10.27;;;3.10;;
75320;SDS011;68337;52.196;5.660;2023-04-24T13:50:40;11.70;;;3.47;;
75320;SDS011;68337;52.196;5.660;2023-04-24T13:53:07;9.80;;;3.13;;
75320;SDS011;68337;52.196;5.660;2023-04-24T13:55:33;14.23;;;3.30;;
75320;SDS011;68337;52.196;5.660;2023-04-24T13:57:59;11.75;;;2.90;;
75320;SDS011;68337;52.196;5.660;2023-04-24T14:00:26;13.68;;;2.95;;
75320;SDS011;68337;52.196;5.660;2023-04-24T14:02:52;6.85;;;2.67;;
75320;SDS011;68337;52.196;5.660;2023-04-24T14:05:18;14.70;;;3.05;;
75320;SDS011;68337;52.196;5.660;2023-04-24T14:07:43;8.88;;;2.70;;
75320;SDS011;68337;52.196;5.660;2023-04-24T14:10:09;12.30;;;3.15;;
75320;SDS011;68337;52.196;5.660;2023-04-24T14:12:35;9.32;;;3.13;;
75320;SDS011;68337;52.196;5.660;2023-04-24T14:15:01;13.65;;;3.78;;
75320;SDS011;68337;52.196;5.660;2023-04-24T14:17:27;14.75;;;3.20;;
75320;SDS011;68337;52.196;5.660;2023-04-24T14:19:53;8.23;;;3.53;;
75320;SDS011;68337;52.196;5.660;2023-04-24T14:22:21;8.20;;;2.60;;
75320;SDS011;68337;52.196;5.660;2023-04-24T14:24:47;7.55;;;2.60;;
75320;SDS011;68337;52.196;5.660;2023-04-24T14:27:12;7.78;;;2.53;;
75320;SDS011;68337;52.196;5.660;2023-04-24T14:29:38;7.50;;;2.67;;
75320;SDS011;68337;52.196;5.660;2023-04-24T14:32:04;10.20;;;3.30;;
75320;SDS011;68337;52.196;5.660;2023-04-24T14:34:30;9.98;;;3.35;;
75320;SDS011;68337;52.196;5.660;2023-04-24T14:36:55;9.45;;;2.85;;
75320;SDS011;68337;52.196;5.660;2023-04-24T14:39:21;7.07;;;2.42;;
75320;SDS011;68337;52.196;5.660;2023-04-24T14:41:47;8.27;;;2.50;;
75320;SDS011;68337;52.196;5.660;2023-04-24T14:44:13;11.43;;;3.22;;
75320;SDS011;68337;52.196;5.660;2023-04-24T14:46:38;9.70;;;3.33;;
75320;SDS011;68337;52.196;5.660;2023-04-24T14:49:04;10.93;;;2.83;;
75320;SDS011;68337;52.196;5.660;2023-04-24T14:51:30;7.35;;;2.85;;
75320;SDS011;68337;52.196;5.660;2023-04-24T14:53:56;14.00;;;3.78;;
75320;SDS011;68337;52.196;5.660;2023-04-24T14:56:21;14.73;;;3.70;;
75320;SDS011;68337;52.196;5.660;2023-04-24T14:58:48;11.80;;;3.22;;